Nearby METAR (Airport) Reports

 

KPRN - Greenville, Alabama, USA
Distance from station: WNW 17mi, 28km
Updated: Mon, 20-Jan-2020 6:56pm CST
NOT Current
Clear
Clear
 Wind from NNW
Wind: NNW 9 mph , 15 km/h, Gust: 23 mph , 37 km/h
Temperature: 37°F , 3°C
Wind Chill: 30°F , -1°C
Dew Point: 18°F , -8°C
Humidity: 45%
Barometer: 30.38 inHg , 1028.8 hPa
Clouds: Clear
Visibility: 10 miles , 16 km
2020/01/21 00:56 KPRN 210056Z AUTO 34008G20KT 10SM CLR 03/M08 A3038 RMK AO2 SLP292 T00331083
KTOI - Troy, Alabama, USA
Distance from station: ENE 21mi, 34km
Updated: Mon, 20-Jan-2020 8:53pm CST
Clear
Clear
 Wind from N
Wind: N 8 mph , 13 km/h
Temperature: 34°F , 1°C
Wind Chill: 27°F , -3°C
Dew Point: 21°F , -6°C
Humidity: 60%
Barometer: 30.41 inHg , 1029.8 hPa
Clouds: Clear
Visibility: 10 miles , 16 km
2020/01/21 02:53 KTOI 210253Z AUTO 35007KT 10SM CLR 01/M06 A3041 RMK AO2 SLP300 T00111061 51018
K79J - Andalusia/Opp Ar, Alabama, USA
Distance from station: S 29mi, 47km
Updated: Mon, 20-Jan-2020 7:56pm CST
Clear
Clear
 Wind from NNW
Wind: NNW 8 mph , 13 km/h
Temperature: 39°F , 4°C
Wind Chill: 33°F , 1°C
Dew Point: 21°F , -6°C
Humidity: 48%
Barometer: 30.40 inHg , 1029.5 hPa
Clouds: Clear
Visibility: 10 miles , 16 km
2020/01/21 01:56 K79J 210156Z AUTO 34007KT 10SM CLR 04/M06 A3040 RMK AO2 SLP295 T00391061 $
 
KMGM - Montgomery, Alabama, USA
Distance from station: N 39mi, 63km
Updated: Mon, 20-Jan-2020 8:53pm CST
Clear
Clear
 Wind from NNW
Wind: NNW 10 mph , 17 km/h
Temperature: 34°F , 1°C
Wind Chill: 26°F , -3°C
Dew Point: 19°F , -7°C
Humidity: 56%
Barometer: 30.44 inHg , 1030.8 hPa
Clouds: Clear
Visibility: 10 miles , 16 km
2020/01/21 02:53 KMGM 210253Z 34009KT 10SM CLR 01/M07 A3044 RMK AO2 SLP310 T00061072 51013 $
KMXF - Maxwell Afb/Mgm, Alabama, USA
Distance from station: N 44mi, 70km
Updated: Mon, 20-Jan-2020 7:56pm CST
Clear
Clear
 Wind from N
Wind: N 12 mph , 19 km/h
Temperature: 34°F , 1°C
Wind Chill: 25°F , -4°C
Dew Point: 16°F , -9°C
Humidity: 48%
Barometer: 30.43 inHg , 1030.5 hPa
Clouds: Clear
Visibility: 10 miles , 16 km
2020/01/21 01:56 KMXF 210156Z AUTO 35010KT 10SM CLR 01/M09 A3043 RMK AO2 SLP309 T00111087 $
KLOR - Lowe Ahp/Ft. Ruc, Alabama, USA
Distance from station: SE 44mi, 71km
Updated: Mon, 20-Jan-2020 7:58pm CST
Clear
Clear
 Wind from NNW
Wind: NNW 5 mph , 7 km/h
Temperature: 36°F , 2°C
Wind Chill: 32°F , 0°C
Dew Point: 21°F , -6°C
Humidity: 56%
Barometer: 30.38 inHg , 1028.8 hPa
Clouds: Clear
Visibility: 10 miles , 16 km
2020/01/21 01:58 KLOR 210158Z AUTO 34004KT 10SM CLR 02/M06 A3038 RMK AO2 SLP273 T00241061
 
KGZH - Evergreen, Alabama, USA
Distance from station: WSW 46mi, 75km
Updated: Mon, 20-Jan-2020 8:53pm CST
Clear
Clear
 Wind from NNW
Wind: NNW 3 mph , 6 km/h
Temperature: 36°F , 2°C
Dew Point: 19°F , -7°C
Humidity: 52%
Barometer: 30.42 inHg , 1030.1 hPa
Clouds: Clear
Visibility: 10 miles , 16 km
2020/01/21 02:53 KGZH 210253Z AUTO 34003KT 10SM CLR 02/M07 A3042 RMK AO2 SLP302 T00221072 51013
K0J4 - Florala Muni, Alabama, USA
Distance from station: S 47mi, 76km
Updated: Mon, 20-Jan-2020 7:58pm CST
Clear
Clear
 Wind from N
Wind: N 6 mph , 9 km/h
Temperature: 36°F , 2°C
Wind Chill: 31°F , -1°C
Dew Point: 23°F , -5°C
Humidity: 60%
Barometer: 30.41 inHg , 1029.8 hPa
Clouds: Clear
Visibility: 10 miles , 16 km
2020/01/21 01:58 K0J4 210158Z AUTO 36005KT 10SM CLR 02/M05 A3041 RMK AO2 SLP299 T00221050 $
KOZR - Ozark/Cairns Aaf, Alabama, USA
Distance from station: SE 49mi, 78km
Updated: Mon, 20-Jan-2020 7:56pm CST
Clear
Clear
 Wind from N
Wind: N 6 mph , 9 km/h
Temperature: 37°F , 3°C
Wind Chill: 32°F , 0°C
Dew Point: 19°F , -7°C
Humidity: 48%
Barometer: 30.38 inHg , 1028.8 hPa
Clouds: Clear
Visibility: 10 miles , 16 km
2020/01/21 01:56 KOZR 210156Z AUTO 35005KT 10SM CLR 03/M07 A3038 RMK AO2 SLP293 T00281066 $
 
KHEY - Ft Rucker/Hanche, Alabama, USA
Distance from station: ESE 49mi, 79km
Updated: Mon, 20-Jan-2020 7:58pm CST
Clear
Clear
 Wind from NNW
Wind: NNW 7 mph , 11 km/h
Temperature: 37°F , 3°C
Wind Chill: 32°F , 0°C
Dew Point: 21°F , -6°C
Humidity: 52%
Barometer: 30.37 inHg , 1028.4 hPa
Clouds: Clear
Visibility: 10 miles , 16 km
2020/01/21 01:58 KHEY 210158Z AUTO 34006KT 10SM CLR 03/M06 A3037 RMK AO2 SLP289 T00291064
KDHN - Dothan, Alabama, USA
Distance from station: ESE 61mi, 97km
Updated: Mon, 20-Jan-2020 8:53pm CST
Clear
Clear
 Wind from NNW
Wind: NNW 9 mph , 15 km/h
Temperature: 36°F , 2°C
Wind Chill: 29°F , -2°C
Dew Point: 23°F , -5°C
Humidity: 60%
Barometer: 30.41 inHg , 1029.8 hPa
Clouds: Clear
Visibility: 10 miles , 16 km
2020/01/21 02:53 KDHN 210253Z AUTO 33008KT 10SM CLR 02/M05 A3041 RMK AO2 SLP300 T00221050 51016
KCEW - Crestview, Florida, USA
Distance from station: S 66mi, 107km
Updated: Mon, 20-Jan-2020 8:53pm CST
Clear
Clear
 Wind from N
Wind: N 6 mph , 9 km/h
Temperature: 37°F , 3°C
Wind Chill: 32°F , 0°C
Dew Point: 21°F , -6°C
Humidity: 52%
Barometer: 30.41 inHg , 1029.8 hPa
Clouds: Clear
Visibility: 10 miles , 16 km
2020/01/21 02:53 KCEW 210253Z AUTO 35005KT 10SM CLR 03/M06 A3041 RMK AO2 SLP299 T00281056 51015
 
KEUF - Eufaula, Alabama, USA
Distance from station: ENE 73mi, 118km
Updated: Mon, 04-Mar-2019 12:58pm CST
NOT Current

 
Barometer: 30.10 inHg , 1019.3 hPa
2019/03/04 18:58 KEUF 041858Z AUTO A3010 RMK AO2 RAEMM TSB02B32 SLPNO PWINO FZRANO TSNO $
KJKA - Gulf Shores, Alabama, USA
Distance from station: SSW 132mi, 212km
Updated: Mon, 20-Jan-2020 8:35pm CST
Clear
Clear
 Wind from N
Wind: N 5 mph , 7 km/h
Temperature: 39°F , 4°C
Wind Chill: 35°F , 2°C
Dew Point: 23°F , -5°C
Humidity: 52%
Barometer: 30.43 inHg , 1030.5 hPa
Clouds: Clear
Visibility: 10 miles , 16 km
2020/01/21 02:35 KJKA 210235Z AUTO 36004KT 10SM CLR 04/M05 A3043 RMK AO2 T00381052
KLSF - Ft Benning/Colum, Georgia, USA
Distance from station: SNE 89mi, 143km
Updated: Mon, 20-Jan-2020 7:56pm CST
Clear
Clear
 Wind from WNW
Wind: WNW 10 mph , 17 km/h
Temperature: 36°F , 2°C
Wind Chill: 29°F , -2°C
Dew Point: 21°F , -6°C
Humidity: 56%
Barometer: 30.38 inHg , 1028.8 hPa
Clouds: Clear
Visibility: 10 miles , 16 km
2020/01/21 01:56 KLSF 210156Z AUTO 30009KT 10SM CLR 02/M06 A3038 RMK AO2 SLP295 T00181063 $
 
KMOB - Mobile/Bates, Alabama, USA
Distance from station: SW 125mi, 202km
Updated: Mon, 20-Jan-2020 7:56pm CST
Clear
Clear
 Wind from N
Wind: N 9 mph , 15 km/h
Temperature: 37°F , 3°C
Wind Chill: 30°F , -1°C
Dew Point: 19°F , -7°C
Humidity: 48%
Barometer: 30.43 inHg , 1030.5 hPa
Clouds: Clear
Visibility: 10 miles , 16 km
2020/01/21 01:56 KMOB 210156Z 36008KT 10SM CLR 03/M07 A3043 RMK AO2 SLP305 T00281067
KNMM - Meridian Nas, Mississippi, USA
Distance from station: WNW 151mi, 243km
Updated: Mon, 20-Jan-2020 7:56pm CST
Clear
Clear
 Wind from N
Wind: N 7 mph , 11 km/h
Temperature: 32°F , 0°C
Wind Chill: 25°F , -4°C
Dew Point: 21°F , -6°C
Humidity: 64%
Barometer: 30.48 inHg , 1032.2 hPa
Clouds: Clear
Visibility: 10 miles , 16 km
2020/01/21 01:56 KNMM 210156Z AUTO 01006KT 10SM CLR 00/M06 A3048 RMK AO2 SLP336 T00001061
KQHY - Hurlbert (Ft Walton Bch), Florida, USA
Distance from station: S 94mi, 151km
Updated: Mon, 16-Dec-2019 1:56pm CST
NOT Current
Mostly cloudy
Mostly cloudy
 Wind from ESE
Wind: ESE 3 mph , 6 km/h
Temperature: 70°F , 21°C
Dew Point: 68°F , 20°C
Humidity: 94%
Barometer: 30.00 inHg , 1015.9 hPa
Clouds: Mostly cloudy
Visibility: 10 miles , 16 km
Cloud details: Mostly cloudy 3700 ft
Mostly cloudy 4700 ft
2019/12/16 19:56 KQHY 161956Z AUTO 12003KT 10SM BKN037 BKN047 21/20 A3000 RMK AO2 SLP165 T02120195
 
KTCL - Tuscaloosa, Alabama, USA
Distance from station: NNW 129mi, 207km
Updated: Mon, 20-Jan-2020 8:53pm CST
Clear
Clear
 Wind from NNE
Wind: NNE 12 mph , 19 km/h
Temperature: 28°F , -2°C
Wind Chill: 18°F , -8°C
Dew Point: 18°F , -8°C
Humidity: 64%
Barometer: 30.50 inHg , 1032.8 hPa
Clouds: Clear
Visibility: 10 miles , 16 km
2020/01/21 02:53 KTCL 210253Z AUTO 02010KT 10SM CLR M02/M08 A3050 RMK AO2 SLP329 T10171078 51007 $
KECP - Panama City, Florida, USA
Distance from station: SSE 122mi, 196km
Updated: Mon, 20-Jan-2020 8:53pm CST
Clear
Clear
 Wind from NNW
Wind: NNW 8 mph , 13 km/h
Temperature: 39°F , 4°C
Wind Chill: 33°F , 1°C
Dew Point: 23°F , -5°C
Humidity: 52%
Barometer: 30.37 inHg , 1028.4 hPa
Clouds: Clear
Visibility: 10 miles , 16 km
2020/01/21 02:53 KECP 210253Z 33007KT 10SM CLR 04/M05 A3037 RMK AO2 SLP296 60000 T00391050 51017
KCBM - Columbus Afb, Mississippi, USA
Distance from station: NW 175mi, 282km
Updated: Mon, 20-Jan-2020 7:56pm CST
Clear
Clear
 Wind from NNE
Wind: NNE 13 mph , 20 km/h
Temperature: 28°F , -2°C
Wind Chill: 17°F , -8°C
Dew Point: 18°F , -8°C
Humidity: 64%
Barometer: 30.51 inHg , 1033.2 hPa
Clouds: Clear
Visibility: 10 miles , 16 km
2020/01/21 01:56 KCBM 210156Z AUTO 03011KT 10SM CLR M02/M08 A3051 RMK AO2 SLP337 T10171078 $
 
KBHM - Birmingham, Alabama, USA
Distance from station: N 132mi, 212km
Updated: Mon, 20-Jan-2020 8:53pm CST
Few Clouds
Few Clouds
 Wind from N
Wind: N 12 mph , 19 km/h
Temperature: 25°F , -4°C
Wind Chill: 14°F , -10°C
Dew Point: 16°F , -9°C
Humidity: 69%
Barometer: 30.49 inHg , 1032.5 hPa
Clouds: Few Clouds
Visibility: 10 miles , 16 km
Cloud details: Few Clouds 2500 ft
2020/01/21 02:53 KBHM 210253Z 36010KT 10SM FEW025 M04/M09 A3049 RMK AO2 SLP330 T10441094 50004
KAAF - Apalachicola, Florida, USA
Distance from station: SSE 156mi, 250km
Updated: Mon, 20-Jan-2020 8:53pm CST
Clear
Clear
 Wind from N
Wind: N 10 mph , 17 km/h
Temperature: 43°F , 6°C
Wind Chill: 37°F , 3°C
Dew Point: 25°F , -4°C
Humidity: 49%
Barometer: 30.35 inHg , 1027.8 hPa
Clouds: Clear
Visibility: 10 miles , 16 km
2020/01/21 02:53 KAAF 210253Z AUTO 01009KT 10SM CLR 06/M04 A3035 RMK AO2 SLP277 T00561044 51021
KATL - Atlanta, Georgia, USA
Distance from station: NE 177mi, 287km
Updated: Mon, 20-Jan-2020 8:52pm CST
Clear
Clear
 Wind from NNW
Wind: NNW 12 mph , 19 km/h
Temperature: 27°F , -3°C
Wind Chill: 16°F , -9°C
Dew Point: 14°F , -10°C
Humidity: 59%
Barometer: 30.37 inHg , 1028.4 hPa
Clouds: Clear
Visibility: 10 miles , 16 km
2020/01/21 02:52 KATL 210252Z 33010KT 10SM CLR M03/M10 A3037 RMK AO2 SLP297 T10281100 53013
 
KGPT - Gulfport, Mississippi, USA
Distance from station: SW 192mi, 309km
Updated: Mon, 20-Jan-2020 8:53pm CST
Clear
Clear
 Wind from NW
Wind: NW 3 mph , 6 km/h
Temperature: 36°F , 2°C
Dew Point: 25°F , -4°C
Humidity: 65%
Barometer: 30.45 inHg , 1031.2 hPa
Clouds: Clear
Visibility: 10 miles , 16 km
2020/01/21 02:53 KGPT 210253Z 31003KT 10SM CLR 02/M04 A3045 RMK AO2 SLP311 T00221044 51014
KNEW - New Orleans/Lake, Louisiana, USA
Distance from station: SW 255mi, 410km
Updated: Mon, 20-Jan-2020 8:53pm CST
Clear
Clear
 Wind from NNE
Wind: NNE 24 mph , 39 km/h
Temperature: 46°F , 8°C
Wind Chill: 38°F , 3°C
Dew Point: 25°F , -4°C
Humidity: 43%
Barometer: 30.47 inHg , 1031.8 hPa
Clouds: Clear
Visibility: 10 miles , 16 km
2020/01/21 02:53 KNEW 210253Z AUTO 02021KT 10SM CLR 08/M04 A3047 RMK AO2 PK WND 02026/0232 SLP311 T00781039 51015
KP92 - Salt Point, Louisiana, USA
Distance from station: SW 347mi, 559km
Updated: Mon, 20-Jan-2020 7:59pm CST

 Wind from N
Wind: N 3 mph , 6 km/h
Temperature: 43°F , 6°C
Dew Point: 28°F , -2°C
Humidity: 57%
Barometer: 30.46 inHg , 1031.5 hPa
2020/01/21 01:59 KP92 210159Z AUTO 35003KT 06/M02 A3046 RMK AO1 SLP314 T00611022